Tiempo atmosférico en la estación meteorológica de Blanes, Girona (60 m.)



Fecha
DESCASC
Temp. máxima en grados centígrados (hora)
DESCASC
Temp. mínima en grados centígrados (hora)
DESCASC
Temp. media en grados centígrados
DESCASC
Racha de viento máxima en m/sg (hora)
DESCASC
Velocidad máxima media en intervalos de 10 minutos(hora)
DESCASC
Precipitaciones diarias en mm
DESCASC
Precipitaciones de 00:00 a 06:00 en mm
DESCASC
Precipitaciones de 06:00 a 12:00 en mm
DESCASC
Precipitaciones de 12:00 a 18:00 en mm
DESCASC
Precipitaciones de 18:00 a 24:00 en mm
DESCASC
31-03-2020 12.6 (15:50) 8.4 (01:50) 10.5 14.17 (23:30) 7.5 (22:30) 1.4 0 0 0.2 1.2
30-03-2020 13.8 (00:20) 8.1 (14:40) 11 12.22 (02:00) 8.89 (02:00) 2 0 1.2 0.8 0
29-03-2020 19.4 (14:30) 10.1 (00:00) 14.8 7.5 (23:59) 4.17 (05:50) 0 0 0 0 0
28-03-2020 18.1 (14:00) 10 (00:00) 14.1 6.94 (02:30) 5 (01:10) 0 0 0 0 0
27-03-2020 13.8 (13:30) 4.1 (00:00) 9 9.17 (04:40) 5.83 (04:30) 0.4 0 0 0.4 0
26-03-2020 9.2 (09:20) 5.3 (00:00) 7.3 12.22 (10:30) 7.22 (10:20) 5 0 0.4 4.6 0
25-03-2020 14.6 (13:50) 7.5 (00:00) 11.1 9.17 (04:30) 6.39 (07:00) 0 0 0 0 0
24-03-2020 14.5 (13:50) 9.3 (00:00) 11.9 11.67 (18:00) 8.33 (15:40) 0 0 0 0 0
23-03-2020 16.4 (12:50) 11.4 (00:00) 13.9 12.22 (19:30) 7.22 (19:10) 1.2 0.8 0 0 0.4
22-03-2020 16.5 (13:20) 12.2 (23:40) 14.3 9.72 (14:30) 6.39 (16:50) 2.4 0 0 0 2.4
21-03-2020 17.5 (12:40) 8.7 (00:00) 13.1 10.28 (16:30) 6.39 (16:20) 0 0 0 0 0
20-03-2020 17.7 (13:10) 8.6 (00:00) 13.2 5.83 (15:10) 4.17 (23:59) 0 0 0 0 0
19-03-2020 17.7 (14:00) 8.3 (00:00) 13 4.72 (12:00) 3.33 (02:50) 0 0 0 0 0
18-03-2020 16.9 (14:10) 11.2 (00:00) 14 6.11 (02:00) 4.72 (03:40) 0 0 0 0 0
17-03-2020 15.9 (15:40) 12 (00:00) 13.9 11.39 (06:30) 7.22 (06:50) 0 0 0 0 0
16-03-2020 13.8 (09:30) 11.9 (00:00) 12.8 13.89 (13:20) 10 (13:20) 13.6 0 2.4 7.2 4
15-03-2020 19.2 (13:20) 10.7 (00:00) 15 7.5 (15:50) 3.89 (11:40) 0 0 0 0 0
14-03-2020 14.7 (15:00) 12.6 (00:00) 13.7 6.11 (08:00) 4.17 (08:40) 0 0 0 0 0
13-03-2020 19.9 (13:50) 10.1 (04:20) 15 6.11 (17:40) 3.89 (05:50) 0 0 0 0 0
12-03-2020 18.9 (12:30) 10.4 (00:00) 14.6 6.94 (12:30) 4.17 (12:30) 0 0 0 0 0
11-03-2020 18.5 (15:10) 10.2 (00:00) 14.3 4.72 (18:20) 3.33 (05:30) 0 0 0 0 0
10-03-2020 17.7 (13:30) 9.1 (00:00) 13.4 10.83 (15:00) 6.39 (14:40) 0 0 0 0 0
09-03-2020 16.2 (11:50) 10.2 (00:00) 13.2 7.5 (12:30) 3.89 (12:20) 0 0 0 0 0
08-03-2020 18.2 (14:30) 9.5 (00:00) 13.9 6.39 (18:40) 4.72 (01:20) 0 0 0 0 0
07-03-2020 16.7 (15:10) 6.6 (00:00) 11.7 7.5 (02:20) 4.72 (02:40) 0 0 0 0 0
06-03-2020 17.2 (13:20) 8.6 (00:00) 12.9 12.5 (15:50) 8.89 (15:20) 0.2 0 0 0.2 0
05-03-2020 22.1 (15:30) 10.5 (00:00) 16.3 17.22 (12:00) 8.33 (17:40) 0 0 0 0 0
04-03-2020 16.2 (16:30) 7.7 (00:00) 12 8.33 (00:10) 3.89 (02:30) 0 0 0 0 0

Gráficas

Temp. máximas Temp. mínimas Temp. medias Precipitaciones Rachas de viento máximas Velocidades máximas media en intervalos de 10 minutos

Datos horarios

Fecha y hora oficial Temperatura (ºC) Velocidad del viento (km/h) Dirección del viento Racha (km/h) Dirección de racha Precipitación (mm) Presión (hPa) Tendencia (hPa) Humedad (%)
2020-04-02 23:00:00 9.8 9 Norte 18 Norte 0 -- -- 77
2020-04-02 22:00:00 10.6 6 Norte 15 Norte 0 -- -- 72
2020-04-02 21:00:00 11 8 Nordeste 16 Nordeste 0 -- -- 70
2020-04-02 20:00:00 11.6 12 Nordeste 28 Nordeste 0 -- -- 70
2020-04-02 19:00:00 13 19 Nordeste 39 Este 0 -- -- 64
2020-04-02 18:00:00 13.6 15 Nordeste 42 Nordeste 0 -- -- 65
2020-04-02 17:00:00 13.4 15 Nordeste 30 Nordeste 0 -- -- 67
2020-04-02 16:00:00 13.6 17 Nordeste 41 Este 0 -- -- 65
2020-04-02 15:00:00 13.2 15 Nordeste 40 Nordeste 0 -- -- 67
2020-04-02 14:00:00 13.3 17 Nordeste 42 Nordeste 0 -- -- 67
2020-04-02 13:00:00 13.4 23 Nordeste 45 Nordeste 0 -- -- 62
2020-04-02 12:00:00 12.4 19 Nordeste 43 Nordeste 0 -- -- 70
2020-04-02 11:00:00 11.2 12 Nordeste 28 Nordeste 0 -- -- 79
2020-04-02 10:00:00 10.1 10 Norte 25 Norte 0 -- -- 88
2020-04-02 09:00:00 9 9 Nordeste 26 Norte 0 -- -- 94
2020-04-02 08:00:00 8.5 11 Norte 29 Norte 0 -- -- 96
2020-04-02 07:00:00 8.4 12 Norte 36 Norte 0 -- -- 97
2020-04-02 06:00:00 8.4 16 Norte 36 Norte 0 -- -- 97
2020-04-02 05:00:00 8.3 16 Norte 32 Norte 0 -- -- 96
2020-04-02 04:00:00 8.4 15 Norte 31 Norte 0 -- -- 95
2020-04-02 03:00:00 8.4 17 Norte 28 Norte 0 -- -- 96
2020-04-02 02:00:00 8.6 12 Norte 24 Nordeste 0 -- -- 97
2020-04-02 01:00:00 9.1 14 Norte 23 Norte 0 -- -- 98
2020-04-02 00:00:00 9.5 13 Norte 28 Norte 0 -- -- 98
2020-04-01 23:00:00 9.6 10 Norte 30 Este 0.6 -- -- 98
2020-04-01 22:00:00 9.6 21 Nordeste 35 Nordeste 3.4 -- -- 98
2020-04-01 21:00:00 9.7 10 Norte 35 Este 0.6 -- -- 97
2020-04-01 20:00:00 9.8 14 Nordeste 33 Este 2 -- -- 97
2020-04-01 19:00:00 10.1 18 Nordeste 37 Este 0.8 -- -- 96
2020-04-01 18:00:00 10 22 Este 40 Nordeste 2.8 -- -- 96
2020-04-01 17:00:00 10.2 18 Nordeste 35 Nordeste 0.8 -- -- 96
2020-04-01 16:00:00 10.3 23 Nordeste 41 Nordeste 0.2 -- -- 95
2020-04-01 15:00:00 10.5 24 Nordeste 45 Nordeste 1.2 -- -- 95
2020-04-01 14:00:00 11.2 27 Este 59 Este 1 -- -- 95
2020-04-01 13:00:00 11 20 Nordeste 38 Nordeste 2.4 -- -- 97
2020-04-01 12:00:00 10.4 22 Nordeste 34 Nordeste 1 -- -- 95
2020-04-01 11:00:00 10.5 15 Nordeste 30 Nordeste 0.8 -- -- 94
2020-04-01 10:00:00 10.7 17 Nordeste 29 Nordeste 0 -- -- 91
2020-04-01 09:00:00 10.5 16 Nordeste 30 Nordeste 0.4 -- -- 92
2020-04-01 08:00:00 10.9 18 Nordeste 36 Norte 0 -- -- 87
2020-04-01 07:00:00 10.9 19 Nordeste 35 Nordeste 0 -- -- 92
2020-04-01 06:00:00 11.3 21 Nordeste 36 Este 0.6 -- -- 91
2020-04-01 05:00:00 11.8 20 Nordeste 34 Nordeste 0 -- -- 91
2020-04-01 04:00:00 11.9 20 Nordeste 34 Nordeste 0 -- -- 93
2020-04-01 03:00:00 11.5 17 Nordeste 28 Nordeste 0 -- -- 96
2020-04-01 02:00:00 10.5 15 Norte 29 Norte 0 -- -- 95
2020-04-01 01:00:00 10 20 Norte 35 Norte 0.6 -- -- 95
2020-04-01 00:00:00 10.4 24 Norte 51 Norte 0 -- -- 89
2020-03-31 23:00:00 10 27 Norte 36 Norte 0 -- -- 89
2020-03-31 22:00:00 9.8 25 Norte 36 Norte 0.4 -- -- 91
2020-03-31 21:00:00 10 22 Norte 32 Norte 0.6 -- -- 89
2020-03-31 20:00:00 10.4 18 Norte 23 Norte 0.2 -- -- 83
2020-03-31 19:00:00 11 10 Norte 26 Norte 0 -- -- 78
2020-03-31 18:00:00 11.7 9 Norte 22 Nordeste 0.2 -- -- 75
2020-03-31 17:00:00 12.3 8 Este 21 Este 0 -- -- 76
2020-03-31 16:00:00 12.6 9 Nordeste 19 Este 0 -- -- 70
2020-03-31 15:00:00 12.1 4 Este 15 Nordeste 0 -- -- 70
2020-03-31 14:00:00 12 10 Nordeste 22 Nordeste 0 -- -- 67
2020-03-31 13:00:00 11.2 6 Nordeste 25 Norte 0 -- -- 71
2020-03-31 12:00:00 10.3 13 Norte 27 Norte 0 -- -- 70
2020-03-31 11:00:00 10.1 12 Norte 23 Norte 0 -- -- 69
2020-03-31 10:00:00 9.8 13 Norte 27 Norte 0 -- -- 69
2020-03-31 09:00:00 9.2 15 Norte 23 Norte 0 -- -- 70
2020-03-31 08:00:00 8.7 12 Norte 29 Norte 0 -- -- 70
2020-03-31 07:00:00 8.6 14 Norte 26 Norte 0 -- -- 73
2020-03-31 06:00:00 8.6 13 Norte 23 Norte 0 -- -- 74
2020-03-31 05:00:00 8.6 11 Norte 19 Norte 0 -- -- 72
2020-03-31 04:00:00 8.8 12 Norte 28 Norte 0 -- -- 70
2020-03-31 03:00:00 8.6 14 Norte 24 Norte 0 -- -- 69
2020-03-31 02:00:00 8.5 17 Norte 24 Norte 0 -- -- 71
2020-03-31 01:00:00 8.5 14 Norte 23 Norte 0 -- -- 76
2020-03-31 00:00:00 8.7 13 Norte 20 Norte 0 -- -- 79
2020-03-30 23:00:00 8.7 12 Norte 21 Norte 0 -- -- 73
2020-03-30 22:00:00 8.6 12 Norte 20 Noroeste 0 -- -- 76
2020-03-30 21:00:00 8.6 8 Norte 12 Noroeste 0 -- -- 79
2020-03-30 20:00:00 8.9 5 Norte 11 Norte 0 -- -- 78
2020-03-30 19:00:00 9.5 5 Noroeste 15 Norte 0 -- -- 74
2020-03-30 18:00:00 9.5 7 Norte 17 Norte 0 -- -- 76
2020-03-30 17:00:00 9.5 8 Norte 17 Norte 0 -- -- 76
2020-03-30 16:00:00 9.8 5 Norte 18 Norte 0 -- -- 76
2020-03-30 15:00:00 8.2 12 Norte 20 Norte 0.2 -- -- 86
2020-03-30 14:00:00 8.6 9 Norte 18 Norte 0.4 -- -- 89
2020-03-30 13:00:00 9.3 4 Norte 14 Noroeste 0.2 -- -- 91
2020-03-30 12:00:00 8.4 8 Norte 20 Noroeste 1 -- -- 91
2020-03-30 11:00:00 8.7 14 Norte 22 Norte 0.2 -- -- 86
2020-03-30 10:00:00 9.5 13 Norte 21 Norte 0 -- -- 81
2020-03-30 09:00:00 10.1 6 Norte 16 Norte 0 -- -- 84
2020-03-30 08:00:00 10 7 Norte 13 Nordeste 0 -- -- 82
2020-03-30 07:00:00 10.2 7 Este 12 Este 0 -- -- 82
2020-03-30 06:00:00 10.2 5 Nordeste 13 Nordeste 0 -- -- 80
2020-03-30 05:00:00 10.6 8 Nordeste 17 Nordeste 0 -- -- 78
2020-03-30 04:00:00 11.2 9 Este 25 Sudeste 0 -- -- 78
2020-03-30 03:00:00 12 18 Este 41 Este 0 -- -- 76
2020-03-30 02:00:00 13 32 Este 44 Este 0 -- -- 80
2020-03-30 01:00:00 13.7 5 Nordeste 25 Nordeste 0 -- -- 93
2020-03-30 00:00:00 13.6 13 Este 27 Nordeste 0 -- -- 75
2020-03-29 23:00:00 13.5 4 Noroeste 10 Oeste 0 -- -- 69
2020-03-29 22:00:00 13.1 5 Norte 9 Norte 0 -- -- 71
2020-03-29 21:00:00 13.4 4 Sudoeste 8 Sudoeste 0 -- -- 75
2020-03-29 20:00:00 13.8 7 Sudoeste 12 Sudoeste 0 -- -- 75
2020-03-29 19:00:00 15.2 6 Sur 13 Sudoeste 0 -- -- 75
2020-03-29 18:00:00 16.5 6 Sur 11 Sur 0 -- -- 72
2020-03-29 17:00:00 17.7 7 Sur 12 Sur 0 -- -- 72
2020-03-29 16:00:00 18.6 8 Sur 16 Sur 0 -- -- 64
2020-03-29 15:00:00 18.5 9 Sur 12 Sudeste 0 -- -- 65
2020-03-29 14:00:00 17.7 7 Este 17 Este 0 -- -- 63
2020-03-29 13:00:00 17.5 9 Nordeste 15 Este 0 -- -- 67
2020-03-29 12:00:00 16.8 4 Sur 8 Norte 0 -- -- 65
2020-03-29 11:00:00 14 7 Norte 15 Noroeste 0 -- -- 73
2020-03-29 10:00:00 12.6 7 Norte 15 Noroeste 0 -- -- 72
2020-03-29 09:00:00 11 9 Noroeste 13 Noroeste 0 -- -- 75
2020-03-29 08:00:00 10.6 0 Calma 10 Norte 0 -- -- 76
2020-03-29 07:00:00 10.4 3 Nordeste 14 Noroeste 0 -- -- 78
2020-03-29 06:00:00 11.4 12 Noroeste 24 Noroeste 0 -- -- 68
2020-03-29 05:00:00 10.8 5 Noroeste 12 Noroeste 0 -- -- 73
2020-03-29 03:00:00 11.4 10 Noroeste 21 Noroeste 0 -- -- 72
2020-03-29 01:00:00 10.8 4 Noroeste 10 Noroeste 0 -- -- 74
2020-03-29 00:00:00 10.9 3 Oeste 6 Noroeste 0 -- -- 73
2020-03-28 23:00:00 11.5 4 Noroeste 12 Noroeste 0 -- -- 71
2020-03-28 22:00:00 12.5 7 Noroeste 15 Oeste 0 -- -- 64
2020-03-28 21:00:00 12.6 8 Oeste 22 Sudoeste 0 -- -- 66
2020-03-28 20:00:00 13 9 Oeste 25 Sudoeste 0 -- -- 72
2020-03-28 19:00:00 13.3 10 Sudoeste 23 Sudoeste 0 -- -- 74
2020-03-28 18:00:00 13.8 13 Sur 25 Sur 0 -- -- 73
2020-03-28 17:00:00 14.9 13 Sur 22 Sudoeste 0 -- -- 70
2020-03-28 16:00:00 15.5 12 Sur 18 Sur 0 -- -- 68
2020-03-28 15:00:00 16.7 6 Sur 13 Sudeste 0 -- -- 68
2020-03-28 14:00:00 18.1 6 Sur 14 Este 0 -- -- 62
2020-03-28 13:00:00 17.7 6 Este 17 Este 0 -- -- 59
2020-03-28 12:00:00 16.2 9 Este 15 Este 0 -- -- 59
2020-03-28 11:00:00 15.5 5 Norte 13 Norte 0 -- -- 55
2020-03-28 10:00:00 13.9 5 Norte 16 Norte 0 -- -- 65
2020-03-28 09:00:00 12.3 11 Norte 19 Norte 0 -- -- 66
2020-03-28 08:00:00 11.3 16 Norte 22 Norte 0 -- -- 62
2020-03-28 07:00:00 11.4 12 Norte 23 Norte 0 -- -- 59
2020-03-28 06:00:00 10.3 15 Norte 21 Norte 0 -- -- 65
2020-03-28 05:00:00 10.1 14 Norte 18 Norte 0 -- -- 66
2020-03-28 04:00:00 10.4 12 Norte 21 Norte 0 -- -- 67
2020-03-28 03:00:00 10.3 18 Norte 25 Norte 0 -- -- 69
2020-03-28 02:00:00 10.5 15 Norte 24 Norte 0 -- -- 68
2020-03-28 01:00:00 10.5 16 Norte 21 Norte 0 -- -- 68
2020-03-28 00:00:00 10.3 10 Norte 17 Norte 0 -- -- 70
2020-03-27 23:00:00 10 12 Noroeste 19 Noroeste 0 -- -- 75
2020-03-27 22:00:00 9.4 5 Norte 10 Norte 0 -- -- 80
2020-03-27 21:00:00 9.5 5 Norte 9 Noroeste 0 -- -- 79
2020-03-27 20:00:00 9.9 4 Oeste 12 Oeste 0 -- -- 74
2020-03-27 19:00:00 10 4 Oeste 10 Sudoeste 0 -- -- 78
2020-03-27 18:00:00 10.4 3 Norte 15 Sudoeste 0.2 -- -- 77
2020-03-27 17:00:00 11.3 4 Noroeste 6 Norte 0.2 -- -- 75
2020-03-27 16:00:00 12.9 0 Calma 8 Sudeste 0 -- -- 57
2020-03-27 15:00:00 13.6 5 Sur 10 Sur 0 -- -- 59
2020-03-27 14:00:00 13.6 5 Sudoeste 11 Sur 0 -- -- 56
2020-03-27 13:00:00 13.1 6 Sur 15 Oeste 0 -- -- 58
2020-03-27 12:00:00 10.1 10 Noroeste 15 Noroeste 0 -- -- 67
2020-03-27 11:00:00 9.3 5 Norte 13 Noroeste 0 -- -- 65
2020-03-27 10:00:00 8.8 7 Noroeste 20 Noroeste 0 -- -- 60
2020-03-27 09:00:00 8.3 13 Noroeste 25 Norte 0 -- -- 63
2020-03-27 08:00:00 6.7 16 Norte 30 Noroeste 0 -- -- 63
2020-03-27 07:00:00 6 20 Noroeste 30 Noroeste 0 -- -- 65
2020-03-27 06:00:00 5.9 20 Noroeste 30 Noroeste 0 -- -- 65
2020-03-27 05:00:00 5.4 21 Noroeste 33 Noroeste 0 -- -- 71
2020-03-27 04:00:00 5.4 21 Noroeste 29 Noroeste 0 -- -- 72
2020-03-27 03:00:00 4.7 17 Noroeste 25 Noroeste 0 -- -- 79
2020-03-27 02:00:00 4.2 12 Noroeste 20 Noroeste 0 -- -- 83
2020-03-27 01:00:00 5.1 12 Noroeste 23 Noroeste 0 -- -- 80
2020-03-27 00:00:00 5.3 15 Norte 24 Norte 0 -- -- 84
2020-03-26 23:00:00 5.9 15 Norte 24 Norte 0 -- -- 81
2020-03-26 22:00:00 6.3 15 Norte 24 Norte 0 -- -- 84
2020-03-26 21:00:00 6.7 18 Norte 27 Norte 0 -- -- 85
2020-03-26 20:00:00 6.8 18 Norte 25 Norte 0 -- -- 86
2020-03-26 19:00:00 7.1 15 Norte 28 Norte 0 -- -- 86
2020-03-26 18:00:00 7.2 14 Norte 27 Norte 0.2 -- -- 87
2020-03-26 17:00:00 7.1 12 Norte 32 Norte 0 -- -- 90
2020-03-26 16:00:00 7.5 17 Norte 31 Noroeste 0 -- -- 93
2020-03-26 15:00:00 6.6 20 Norte 32 Norte 0.4 -- -- 94
2020-03-26 14:00:00 6.6 13 Nordeste 30 Norte 2.6 -- -- 94
2020-03-26 13:00:00 6.2 20 Norte 39 Norte 1.4 -- -- 95
2020-03-26 12:00:00 6.8 20 Norte 30 Noroeste 0.4 -- -- 93
2020-03-26 11:00:00 8.5 12 Nordeste 44 Este 0 -- -- 84
2020-03-26 10:00:00 8.6 17 Nordeste 32 Este 0 -- -- 86
2020-03-26 09:00:00 8.3 15 Norte 28 Nordeste 0 -- -- 77
2020-03-26 08:00:00 7 17 Norte 28 Norte 0 -- -- 83
2020-03-26 07:00:00 5.7 12 Norte 25 Norte 0 -- -- 83
2020-03-26 06:00:00 6.1 17 Noroeste 25 Noroeste 0 -- -- 78
2020-03-26 05:00:00 6.2 12 Norte 22 Noroeste 0 -- -- 73
2020-03-26 04:00:00 6.7 11 Noroeste 19 Noroeste 0 -- -- 71
2020-03-26 03:00:00 6.3 12 Noroeste 17 Noroeste 0 -- -- 74
2020-03-26 02:00:00 7.5 8 Oeste 23 Noroeste 0 -- -- 67
2020-03-26 01:00:00 7.9 11 Sudoeste 20 Oeste 0 -- -- 66
2020-03-26 00:00:00 8.6 9 Oeste 21 Oeste 0 -- -- 60
2020-03-25 23:00:00 8.7 8 Oeste 14 Oeste 0 -- -- 64
2020-03-25 22:00:00 9.1 7 Oeste 15 Sudoeste 0 -- -- 65
2020-03-25 21:00:00 8.9 4 Noroeste 14 Sudoeste 0 -- -- 68
2020-03-25 20:00:00 9.6 7 Oeste 26 Sur 0 -- -- 66
2020-03-25 19:00:00 9.9 7 Oeste 26 Sudoeste 0 -- -- 65
2020-03-25 18:00:00 10.6 13 Sudoeste 23 Sudoeste 0 -- -- 59
2020-03-25 17:00:00 11.9 7 Sur 16 Sudeste 0 -- -- 57
2020-03-25 16:00:00 12.5 8 Sur 19 Sur 0 -- -- 56
2020-03-25 15:00:00 12.8 8 Sur 19 Sudeste 0 -- -- 52
2020-03-25 14:00:00 14.3 10 Sur 19 Sudeste 0 -- -- 51
2020-03-25 13:00:00 12.6 6 Este 23 Sudeste 0 -- -- 55
2020-03-25 12:00:00 13 14 Este 33 Este 0 -- -- 61
2020-03-25 11:00:00 13 14 Este 27 Este 0 -- -- 44
2020-03-25 10:00:00 12.8 13 Este 21 Este 0 -- -- 44
2020-03-25 09:00:00 9.4 13 Norte 24 Norte 0 -- -- 59
2020-03-25 08:00:00 7.7 21 Norte 30 Norte 0 -- -- 62
2020-03-25 07:00:00 7.6 23 Norte 31 Norte 0 -- -- 64
2020-03-25 06:00:00 7.6 20 Norte 27 Norte 0 -- -- 68
2020-03-25 05:00:00 7.9 20 Norte 33 Norte 0 -- -- 67
2020-03-25 04:00:00 8.1 19 Norte 28 Norte 0 -- -- 69
2020-03-25 03:00:00 8.4 16 Norte 26 Noroeste 0 -- -- 68
2020-03-25 02:00:00 8.7 15 Norte 24 Norte 0 -- -- 66
2020-03-25 01:00:00 8.9 13 Norte 21 Norte 0 -- -- 65
2020-03-25 00:00:00 9.3 12 Norte 28 Este 0 -- -- 62
2020-03-24 23:00:00 10.3 18 Nordeste 36 Este 0 -- -- 58
2020-03-24 22:00:00 10.3 18 Nordeste 32 Este 0 -- -- 59
2020-03-24 21:00:00 10.3 15 Nordeste 28 Nordeste 0 -- -- 61
2020-03-24 20:00:00 10.5 15 Nordeste 38 Nordeste 0 -- -- 62
2020-03-24 19:00:00 10.9 24 Este 41 Nordeste 0 -- -- 65
2020-03-24 18:00:00 11.3 26 Nordeste 42 Este 0 -- -- 66
2020-03-24 17:00:00 11.7 24 Este 42 Este 0 -- -- 66
2020-03-24 16:00:00 12.5 27 Este 42 Este 0 -- -- 65
2020-03-24 15:00:00 12.4 26 Este 40 Este 0 -- -- 70
2020-03-24 14:00:00 14.5 21 Este 40 Este 0 -- -- 65
2020-03-24 13:00:00 13.2 26 Este 40 Este 0 -- -- 66
2020-03-24 12:00:00 12.6 27 Este 38 Este 0 -- -- 64
2020-03-24 11:00:00 13.4 21 Este 38 Este 0 -- -- 62
2020-03-24 10:00:00 12.1 20 Nordeste 30 Nordeste 0 -- -- 68
2020-03-24 09:00:00 11.3 13 Nordeste 25 Nordeste 0 -- -- 69
2020-03-24 08:00:00 11 14 Nordeste 28 Nordeste 0 -- -- 71
2020-03-24 07:00:00 10.8 14 Nordeste 24 Este 0 -- -- 76
2020-03-24 06:00:00 10.6 12 Nordeste 25 Nordeste 0 -- -- 80
2020-03-24 05:00:00 10.6 13 Nordeste 26 Este 0 -- -- 81
2020-03-24 04:00:00 10.8 13 Nordeste 25 Nordeste 0 -- -- 84
2020-03-24 03:00:00 11.2 14 Nordeste 23 Nordeste 0 -- -- 84
2020-03-24 02:00:00 11 14 Norte 24 Norte 0 -- -- 87
2020-03-24 01:00:00 10.8 12 Norte 23 Norte 0 -- -- 86
2020-03-24 00:00:00 11.4 11 Norte 21 Norte 0 -- -- 84
2020-03-23 23:00:00 12.1 12 Nordeste 29 Este 0 -- -- 81
2020-03-23 22:00:00 12.6 18 Este 39 Este 0 -- -- 81
2020-03-23 21:00:00 12.6 22 Este 37 Este 0 -- -- 82
2020-03-23 20:00:00 12.1 21 Nordeste 44 Nordeste 0.4 -- -- 87
2020-03-23 19:00:00 13.2 25 Nordeste 42 Nordeste 0 -- -- 81
2020-03-23 18:00:00 13.6 21 Nordeste 39 Nordeste 0 -- -- 81
2020-03-23 17:00:00 14.2 20 Nordeste 36 Este 0 -- -- 79
2020-03-23 16:00:00 14.2 20 Este 37 Este 0 -- -- 81
2020-03-23 15:00:00 14.3 12 Nordeste 24 Este 0 -- -- 82
2020-03-23 14:00:00 14 11 Norte 25 Este 0 -- -- 84
2020-03-23 13:00:00 16.2 12 Nordeste 18 Nordeste 0 -- -- 79
2020-03-23 12:00:00 15.1 12 Este 22 Este 0 -- -- 83
2020-03-23 11:00:00 13.9 12 Norte 23 Norte 0 -- -- 90
2020-03-23 10:00:00 13 13 Norte 20 Norte 0 -- -- 93
2020-03-23 09:00:00 12.2 15 Norte 24 Norte 0 -- -- 97
2020-03-23 08:00:00 12 18 Norte 23 Norte 0 -- -- 97
2020-03-23 07:00:00 11.9 14 Norte 24 Norte 0 -- -- 98
2020-03-23 06:00:00 11.7 14 Norte 20 Norte 0 -- -- 98
2020-03-23 05:00:00 11.7 13 Norte 21 Norte 0.2 -- -- 98
2020-03-23 04:00:00 11.9 13 Norte 17 Norte 0.2 -- -- 98
2020-03-23 03:00:00 12.1 10 Nordeste 21 Norte 0.4 -- -- 98
2020-03-23 02:00:00 12 12 Norte 17 Norte 0 -- -- 97
2020-03-23 01:00:00 12 9 Norte 15 Norte 0 -- -- 98
2020-03-23 00:00:00 12.2 9 Norte 15 Nordeste 0 -- -- 97
2020-03-22 23:00:00 12.5 9 Nordeste 18 Nordeste 1.8 -- -- 97
2020-03-22 22:00:00 13 8 Norte 13 Nordeste 0.6 -- -- 94
2020-03-22 21:00:00 13.1 8 Nordeste 13 Nordeste 0 -- -- 92
2020-03-22 20:00:00 12.8 6 Nordeste 18 Nordeste 0 -- -- 93
2020-03-22 19:00:00 13.3 13 Este 26 Este 0 -- -- 93
2020-03-22 18:00:00 13.8 16 Este 30 Este 0 -- -- 90
2020-03-22 17:00:00 14.5 17 Este 33 Este 0 -- -- 86
2020-03-22 16:00:00 15.7 17 Este 25 Este 0 -- -- 81
2020-03-22 15:00:00 15.9 17 Este 35 Este 0 -- -- 80
2020-03-22 14:00:00 16.3 15 Este 30 Este 0 -- -- 79
2020-03-22 13:00:00 16.3 15 Este 27 Este 0 -- -- 81
2020-03-22 12:00:00 15.7 20 Este 28 Este 0 -- -- 82
2020-03-22 11:00:00 16.3 13 Este 24 Este 0 -- -- 82
2020-03-22 10:00:00 15.9 14 Este 23 Este 0 -- -- 83
2020-03-22 09:00:00 14.7 8 Este 15 Nordeste 0 -- -- 92
2020-03-22 08:00:00 12.4 6 Norte 14 Nordeste 0 -- -- 94
2020-03-22 07:00:00 12.4 9 Norte 14 Norte 0 -- -- 96
2020-03-22 06:00:00 12.4 5 Norte 13 Norte 0 -- -- 98
2020-03-22 05:00:00 12.6 5 Norte 10 Nordeste 0 -- -- 98
2020-03-22 04:00:00 12.9 3 Oeste 10 Este 0 -- -- 98
2020-03-22 03:00:00 13.2 8 Este 11 Este 0 -- -- 98
2020-03-22 02:00:00 13.1 5 Este 12 Este 0 -- -- 97
2020-03-22 01:00:00 13.3 6 Este 12 Nordeste 0 -- -- 96
2020-03-22 00:00:00 13.4 9 Este 13 Este 0 -- -- 96
2020-03-21 23:00:00 13.5 10 Este 17 Este 0 -- -- 95
2020-03-21 22:00:00 13.2 8 Nordeste 13 Nordeste 0 -- -- 95
2020-03-21 21:00:00 13.1 8 Nordeste 17 Nordeste 0 -- -- 94
2020-03-21 20:00:00 13.2 10 Nordeste 19 Este 0 -- -- 94
2020-03-21 19:00:00 13.3 13 Este 24 Este 0 -- -- 91
2020-03-21 18:00:00 13.7 15 Este 31 Este 0 -- -- 90
2020-03-21 17:00:00 14.7 17 Este 37 Este 0 -- -- 83
2020-03-21 16:00:00 15 23 Este 31 Este 0 -- -- 81
2020-03-21 15:00:00 15.4 22 Este 33 Este 0 -- -- 78
2020-03-21 14:00:00 15.9 19 Este 29 Este 0 -- -- 72
2020-03-21 13:00:00 17.1 12 Este 21 Este 0 -- -- 65
2020-03-21 12:00:00 16.6 8 Nordeste 23 Noroeste 0 -- -- 66
2020-03-21 11:00:00 15.1 9 Norte 22 Norte 0 -- -- 71
2020-03-21 10:00:00 12.8 9 Norte 22 Norte 0 -- -- 77
2020-03-21 09:00:00 10.7 16 Norte 24 Norte 0 -- -- 79
2020-03-21 08:00:00 9.3 18 Norte 26 Norte 0 -- -- 77
2020-03-21 07:00:00 9.4 19 Norte 26 Norte 0 -- -- 83
2020-03-21 06:00:00 8.8 18 Norte 28 Norte 0 -- -- 82
2020-03-21 05:00:00 8.7 21 Norte 33 Norte 0 -- -- 83
2020-03-21 04:00:00 9.4 19 Norte 25 Norte 0 -- -- 85
2020-03-21 03:00:00 10 18 Norte 25 Norte 0 -- -- 84
2020-03-21 02:00:00 9.7 18 Norte 24 Norte 0 -- -- 85
2020-03-21 01:00:00 10.6 17 Norte 23 Norte 0 -- -- 78
2020-03-21 00:00:00 10.8 15 Norte 19 Norte 0 -- -- 76
2020-03-20 23:00:00 10.8 10 Norte 14 Norte 0 -- -- 72
2020-03-20 22:00:00 10.8 9 Norte 12 Norte 0 -- -- 75
2020-03-20 21:00:00 10.9 6 Norte 9 Norte 0 -- -- 79
2020-03-20 20:00:00 11.7 4 Nordeste 14 Este 0 -- -- 82
2020-03-20 19:00:00 12.8 11 Este 16 Este 0 -- -- 78
2020-03-20 18:00:00 14.1 9 Este 14 Este 0 -- -- 80
2020-03-20 17:00:00 15.5 8 Este 17 Este 0 -- -- 75
2020-03-20 16:00:00 16 9 Este 21 Este 0 -- -- 78
2020-03-20 15:00:00 16.3 9 Este 17 Este 0 -- -- 74
2020-03-20 14:00:00 16.2 9 Este 18 Este 0 -- -- 74
2020-03-20 13:00:00 17.6 4 Sudeste 12 Este 0 -- -- 67
2020-03-20 12:00:00 16.8 7 Este 14 Este 0 -- -- 68
2020-03-20 11:00:00 15.8 9 Este 14 Este 0 -- -- 73
2020-03-20 10:00:00 14.6 6 Este 14 Nordeste 0 -- -- 77
2020-03-20 09:00:00 12 4 Nordeste 12 Norte 0 -- -- 86
2020-03-20 08:00:00 10.1 8 Noroeste 13 Norte 0 -- -- 89
2020-03-20 07:00:00 8.8 9 Norte 14 Noroeste 0 -- -- 87
2020-03-20 06:00:00 9 11 Noroeste 16 Noroeste 0 -- -- 82
2020-03-20 05:00:00 8.6 4 Norte 17 Noroeste 0 -- -- 90
2020-03-20 04:00:00 9.2 11 Noroeste 18 Noroeste 0 -- -- 90
2020-03-20 03:00:00 9.3 12 Noroeste 20 Noroeste 0 -- -- 91
2020-03-20 02:00:00 9.7 11 Noroeste 12 Noroeste 0 -- -- 97
2020-03-20 01:00:00 9.6 3 Oeste 8 Noroeste 0 -- -- 96
2020-03-20 00:00:00 9.9 3 Norte 5 Norte 0 -- -- 95
2020-03-19 23:00:00 10.1 2 Norte 5 Noroeste 0 -- -- 95
2020-03-19 22:00:00 10.4 3 Noroeste 9 Noroeste 0 -- -- 92
2020-03-19 21:00:00 11 3 Noroeste 5 Noroeste 0 -- -- 91
2020-03-19 20:00:00 11.5 0 Calma 4 Este 0 -- -- 88
2020-03-19 19:00:00 12.6 0 Calma 7 Este 0 -- -- 83
2020-03-19 18:00:00 14.5 4 Sudeste 10 Sudeste 0 -- -- 75
2020-03-19 17:00:00 15.7 5 Sudeste 12 Sudeste 0 -- -- 73
2020-03-19 16:00:00 16.5 8 Sur 14 Sudeste 0 -- -- 70
2020-03-19 15:00:00 17.1 8 Sudeste 15 Sur 0 -- -- 68
2020-03-19 14:00:00 17.7 6 Sudeste 14 Sudeste 0 -- -- 69
2020-03-19 13:00:00 17.1 5 Sur 15 Sudeste 0 -- -- 73
2020-03-19 12:00:00 16 8 Este 17 Nordeste 0 -- -- 76
2020-03-19 11:00:00 15.5 5 Sudeste 10 Sudeste 0 -- -- 77
2020-03-19 10:00:00 14.6 5 Sur 9 Sudoeste 0 -- -- 82
2020-03-19 09:00:00 12.1 5 Norte 8 Norte 0 -- -- 95
2020-03-19 08:00:00 10.2 4 Norte 7 Noroeste 0 -- -- 98
2020-03-19 07:00:00 8.6 3 Nordeste 5 Nordeste 0 -- -- 97
2020-03-19 06:00:00 8.5 0 Calma 12 Noroeste 0 -- -- 96
2020-03-19 05:00:00 8.6 10 Noroeste 15 Noroeste 0 -- -- 96
2020-03-19 04:00:00 9 4 Noroeste 15 Noroeste 0 -- -- 98
2020-03-19 03:00:00 10 11 Noroeste 15 Noroeste 0 -- -- 99
2020-03-19 02:00:00 11.1 8 Noroeste 12 Noroeste 0 -- -- 99
2020-03-19 01:00:00 10.9 0 Calma 4 Oeste 0 -- -- 98
2020-03-19 00:00:00 11.3 0 Calma 4 Sudoeste 0 -- -- 98
2020-03-18 23:00:00 11.2 0 Calma -- -- 0 -- -- 97
2020-03-18 22:00:00 11.5 0 Calma 4 Sudoeste 0 -- -- 96
2020-03-18 21:00:00 11.7 2 Sudoeste 6 Sudoeste 0 -- -- 95
2020-03-18 20:00:00 12.2 2 Sudoeste 6 Sudoeste 0 -- -- 92
2020-03-18 19:00:00 13 4 Sudoeste 6 Sudoeste 0 -- -- 89
2020-03-18 18:00:00 14 3 Sur 6 Nordeste 0 -- -- 87
2020-03-18 17:00:00 14.5 4 Nordeste 6 Sur 0 -- -- 85
2020-03-18 16:00:00 15.2 5 Sur 8 Sudeste 0 -- -- 84
2020-03-18 15:00:00 15.7 6 Sudeste 11 Sudeste 0 -- -- 81
2020-03-18 14:00:00 16.6 6 Sudeste 11 Sudeste 0 -- -- 78
2020-03-18 13:00:00 16.1 6 Sudeste 9 Sudeste 0 -- -- 77
2020-03-18 12:00:00 15.7 7 Este 9 Este 0 -- -- 74
2020-03-18 11:00:00 15 4 Sudeste 8 Sudeste 0 -- -- 73
2020-03-18 10:00:00 13.8 0 Calma 4 Este 0 -- -- 72
2020-03-18 09:00:00 12.5 0 Calma 14 Norte 0 -- -- 74
2020-03-18 08:00:00 11.7 12 Norte 16 Norte 0 -- -- 76
2020-03-18 07:00:00 11.8 11 Norte 21 Norte 0 -- -- 72
2020-03-18 06:00:00 12 14 Norte 18 Noroeste 0 -- -- 75
2020-03-18 05:00:00 12.5 15 Norte 21 Norte 0 -- -- 71
2020-03-18 04:00:00 12.7 14 Norte 22 Norte 0 -- -- 72
2020-03-18 03:00:00 12.8 11 Norte 21 Norte 0 -- -- 67
2020-03-18 02:00:00 12.8 9 Norte 22 Norte 0 -- -- 70
2020-03-18 01:00:00 12.3 5 Norte 12 Nordeste 0 -- -- 77
2020-03-18 00:00:00 12.4 12 Norte 23 Norte 0 -- -- 84
2020-03-17 23:00:00 12.7 12 Norte 19 Norte 0 -- -- 85
2020-03-17 22:00:00 13.1 7 Nordeste 18 Nordeste 0 -- -- 81
2020-03-17 21:00:00 13.3 9 Norte 21 Norte 0 -- -- 76
2020-03-17 20:00:00 13.7 13 Norte 21 Norte 0 -- -- 79
2020-03-17 19:00:00 14.1 6 Nordeste 18 Este 0 -- -- 81
2020-03-17 18:00:00 14.8 8 Norte 15 Norte 0 -- -- 83
2020-03-17 17:00:00 15.7 5 Nordeste 18 Este 0 -- -- 80
2020-03-17 16:00:00 15.7 13 Este 22 Nordeste 0 -- -- 78
2020-03-17 15:00:00 15.4 14 Nordeste 26 Nordeste 0 -- -- 76
2020-03-17 14:00:00 15.3 15 Nordeste 24 Este 0 -- -- 75
2020-03-17 13:00:00 15.1 13 Nordeste 26 Nordeste 0 -- -- 81
2020-03-17 12:00:00 14.4 12 Nordeste 30 Norte 0 -- -- 84
2020-03-17 11:00:00 14.1 13 Norte 33 Norte 0 -- -- 89
2020-03-17 10:00:00 13.5 19 Norte 35 Norte 0 -- -- 90
2020-03-17 09:00:00 13 11 Nordeste 26 Nordeste 0 -- -- 92
2020-03-17 08:00:00 12.5 11 Nordeste 38 Norte 0 -- -- 91
2020-03-17 07:00:00 12.6 25 Norte 41 Norte 0 -- -- 90
2020-03-17 06:00:00 12.6 22 Norte 33 Norte 0 -- -- 90
2020-03-17 05:00:00 12.4 23 Norte 37 Norte 0 -- -- 91
2020-03-17 04:00:00 12.2 12 Norte 27 Norte 0 -- -- 92
2020-03-17 03:00:00 12.1 10 Nordeste 30 Norte 0 -- -- 93
2020-03-17 02:00:00 12.1 18 Norte 28 Norte 0 -- -- 93
2020-03-17 01:00:00 12.4 17 Norte 38 Norte 0 -- -- 92
2020-03-17 00:00:00 12.6 18 Norte 32 Norte 0 -- -- 91
2020-03-16 23:00:00 13 19 Norte 42 Nordeste 0 -- -- 88
2020-03-16 22:00:00 12.9 19 Nordeste 41 Este 0 -- -- 90
2020-03-16 21:00:00 12.8 16 Nordeste 33 Nordeste 0 -- -- 93
2020-03-16 20:00:00 12.4 18 Nordeste 41 Nordeste 0.4 -- -- 96
2020-03-16 19:00:00 12.4 25 Nordeste 45 Nordeste 3.6 -- -- 98
2020-03-16 18:00:00 12.7 19 Nordeste 36 Nordeste 1 -- -- 97
2020-03-16 17:00:00 12.9 23 Nordeste 42 Este 0 -- -- 98
2020-03-16 16:00:00 12.8 25 Este 42 Este 0.8 -- -- 99
2020-03-16 15:00:00 12.6 25 Este 46 Este 0.6 -- -- 99
2020-03-16 14:00:00 12.6 30 Este 50 Este 3.4 -- -- 98
2020-03-16 13:00:00 13.1 29 Este 46 Este 1.4 -- -- 98
2020-03-16 12:00:00 13.2 22 Este 37 Este 2.4 -- -- 96
2020-03-16 11:00:00 13.7 21 Nordeste 33 Nordeste 0 -- -- 93
2020-03-16 10:00:00 13.8 15 Este 25 Este 0 -- -- 90
2020-03-16 09:00:00 13.6 12 Nordeste 28 Nordeste 0 -- -- 89
2020-03-16 08:00:00 13.1 13 Nordeste 23 Este 0 -- -- 91
2020-03-16 07:00:00 12.6 13 Nordeste 22 Nordeste 0 -- -- 90
2020-03-16 06:00:00 12.4 15 Nordeste 24 Nordeste 0 -- -- 88
2020-03-16 05:00:00 12 9 Nordeste 15 Nordeste 0 -- -- 88
2020-03-16 04:00:00 12.4 9 Nordeste 17 Este 0 -- -- 92
2020-03-16 03:00:00 13 6 Este 12 Este 0 -- -- 88
2020-03-16 02:00:00 13.2 2 Noroeste 14 Sudeste 0 -- -- 88
2020-03-16 01:00:00 13.1 6 Sur 16 Sur 0 -- -- 90
2020-03-16 00:00:00 13 8 Sudeste 14 Sudeste 0 -- -- 92
2020-03-15 23:00:00 12.6 8 Sur 13 Sur 0 -- -- 92
2020-03-15 22:00:00 12.7 5 Sur 10 Sur 0 -- -- 94
2020-03-15 21:00:00 12.7 5 Sur 12 Sur 0 -- -- 92
2020-03-15 20:00:00 13.4 5 Sur 16 Sur 0 -- -- 88
2020-03-15 19:00:00 14.1 9 Sur 19 Sur 0 -- -- 87
2020-03-15 18:00:00 14.8 10 Sur 21 Sur 0 -- -- 84
2020-03-15 17:00:00 16.2 10 Sur 23 Sur 0 -- -- 77
2020-03-15 16:00:00 17 12 Sur 27 Sur 0 -- -- 78
2020-03-15 15:00:00 18 12 Sur 27 Sur 0 -- -- 72
2020-03-15 14:00:00 18.6 12 Sur 26 Sur 0 -- -- 70
2020-03-15 13:00:00 18.6 11 Sur 22 Sudoeste 0 -- -- 70
2020-03-15 12:00:00 17.6 13 Sur 25 Sur 0 -- -- 71
2020-03-15 11:00:00 14.9 12 Sur 18 Sudoeste 0 -- -- 84
2020-03-15 10:00:00 15.4 6 Sur 11 Sur 0 -- -- 81
2020-03-15 09:00:00 12.9 3 Sudeste 5 Este 0 -- -- 88
2020-03-15 08:00:00 11.3 2 Sur 5 Sudoeste 0 -- -- 93
2020-03-15 07:00:00 10.9 0 Calma 9 Noroeste 0 -- -- 90
2020-03-15 06:00:00 11.1 4 Noroeste 11 Oeste 0 -- -- 88
2020-03-15 05:00:00 11.8 6 Oeste 12 Sudoeste 0 -- -- 82
2020-03-15 04:00:00 11.5 7 Oeste 16 Noroeste 0 -- -- 83
2020-03-15 03:00:00 11.2 10 Noroeste 14 Noroeste 0 -- -- 89
2020-03-15 02:00:00 11.8 5 Noroeste 15 Norte 0 -- -- 92
2020-03-15 01:00:00 12.5 9 Norte 12 Norte 0 -- -- 91
2020-03-15 00:00:00 12.6 4 Noroeste 6 Norte 0 -- -- 91
2020-03-14 23:00:00 12.8 0 Calma 3 Oeste 0 -- -- 91
2020-03-14 22:00:00 12.9 0 Calma 5 Oeste 0 -- -- 89
2020-03-14 21:00:00 13.2 3 Noroeste 16 Oeste 0 -- -- 88
2020-03-14 20:00:00 13.4 10 Sudoeste 17 Sur 0 -- -- 89
2020-03-14 19:00:00 13.5 5 Sur 10 Sur 0 -- -- 86
2020-03-14 18:00:00 13.8 4 Sur 8 Sudeste 0 -- -- 83
2020-03-14 17:00:00 13.9 4 Sudeste 8 Sur 0 -- -- 81
2020-03-14 16:00:00 14.2 6 Sudeste 10 Sudeste 0 -- -- 78
2020-03-14 15:00:00 14.7 6 Sur 9 Sur 0 -- -- 79
2020-03-14 14:00:00 14.4 3 Sur 6 Sur 0 -- -- 75
2020-03-14 13:00:00 14.3 4 Sur 7 Sudeste 0 -- -- 79
2020-03-14 12:00:00 14 3 Sudeste 9 Sudeste 0 -- -- 79
2020-03-14 11:00:00 13.9 2 Este 6 Nordeste 0 -- -- 77
2020-03-14 10:00:00 14.1 5 Este 14 Este 0 -- -- 80
2020-03-14 09:00:00 13.4 10 Este 21 Este 0 -- -- 82
2020-03-14 08:00:00 13.2 12 Este 22 Nordeste 0 -- -- 91
2020-03-14 07:00:00 13.1 9 Norte 14 Norte 0 -- -- 90
2020-03-14 06:00:00 12.9 3 Oeste 7 Oeste 0 -- -- 90
2020-03-14 05:00:00 13.1 4 Sudoeste 5 Sudoeste 0 -- -- 89
2020-03-14 04:00:00 12.9 0 Calma 4 Norte 0 -- -- 90
2020-03-14 03:00:00 13 0 Calma 8 Norte 0 -- -- 93
2020-03-14 02:00:00 13 5 Noroeste 10 Noroeste 0 -- -- 94
2020-03-14 01:00:00 13 0 Calma 7 Sudoeste 0 -- -- 93
2020-03-14 00:00:00 13 4 Sudoeste 11 Oeste 0 -- -- 93
2020-03-13 23:00:00 13 8 Oeste 14 Sudoeste 0 -- -- 94
2020-03-13 22:00:00 13.1 8 Sudoeste 16 Oeste 0 -- -- 93
2020-03-13 21:00:00 13.2 7 Sudoeste 15 Oeste 0 -- -- 91
2020-03-13 20:00:00 13.5 6 Sudoeste 19 Sur 0 -- -- 92
2020-03-13 19:00:00 13.8 8 Sur 18 Sur 0 -- -- 88
2020-03-13 18:00:00 15.1 11 Sur 22 Sudoeste 0 -- -- 82
2020-03-13 17:00:00 17.3 12 Sudoeste 20 Sur 0 -- -- 75
2020-03-13 16:00:00 18.8 8 Sur 17 Sur 0 -- -- 65
2020-03-13 15:00:00 19.3 11 Sudoeste 18 Sudoeste 0 -- -- 68
2020-03-13 14:00:00 19.6 11 Sudoeste 19 Sur 0 -- -- 64
2020-03-13 13:00:00 19.5 9 Sudoeste 17 Sudoeste 0 -- -- 63
2020-03-13 12:00:00 19.3 8 Sur 12 Sur 0 -- -- 62
2020-03-13 11:00:00 17.6 5 Sur 12 Sudoeste 0 -- -- 68
2020-03-13 10:00:00 14.8 5 Norte 14 Norte 0 -- -- 76
2020-03-13 09:00:00 13.2 9 Noroeste 13 Noroeste 0 -- -- 84
2020-03-13 08:00:00 12 4 Noroeste 8 Norte 0 -- -- 92
2020-03-13 07:00:00 10.9 5 Norte 13 Norte 0 -- -- 95
2020-03-13 06:00:00 10.7 12 Noroeste 22 Noroeste 0 -- -- 94
2020-03-13 05:00:00 10.9 13 Norte 19 Norte 0 -- -- 100
2020-03-13 04:00:00 10.3 2 Norte 5 Norte 0 -- -- 99
2020-03-13 03:00:00 10.6 0 Calma 6 Oeste 0 -- -- 99
2020-03-13 02:00:00 10.9 3 Oeste 5 Oeste 0 -- -- 99
2020-03-13 01:00:00 11.1 0 Calma 4 Nordeste 0 -- -- 99
2020-03-13 00:00:00 11.6 0 Calma 10 Este 0 -- -- 98
2020-03-12 23:00:00 11.8 6 Nordeste 10 Nordeste 0 -- -- 98
2020-03-12 22:00:00 11.5 3 Nordeste 8 Norte 0 -- -- 96
2020-03-12 21:00:00 11.9 0 Calma 5 Este 0 -- -- 95
2020-03-12 20:00:00 12.3 2 Nordeste 9 Este 0 -- -- 93
2020-03-12 19:00:00 13 5 Este 10 Sur 0 -- -- 92
2020-03-12 18:00:00 13.9 4 Sur 10 Sudoeste 0 -- -- 90
2020-03-12 17:00:00 14.3 6 Sur 14 Sur 0 -- -- 90
2020-03-12 16:00:00 15 5 Sur 10 Sur 0 -- -- 86
2020-03-12 15:00:00 16.1 6 Sur 10 Sur 0 -- -- 82
2020-03-12 14:00:00 17.8 6 Sur 17 Sudoeste 0 -- -- 75
2020-03-12 13:00:00 17.7 9 Sur 25 Sudoeste 0 -- -- 76
2020-03-12 12:00:00 18.3 7 Sur 12 Sudoeste 0 -- -- 73
2020-03-12 11:00:00 17 6 Sur 9 Sur 0 -- -- 73
2020-03-12 10:00:00 15.8 4 Este 7 Sudoeste 0 -- -- 77
2020-03-12 09:00:00 14.1 3 Sudoeste 9 Sudoeste 0 -- -- 88
2020-03-12 08:00:00 11.5 3 Oeste 17 Noroeste 0 -- -- 84
2020-03-12 07:00:00 11.6 9 Noroeste 15 Noroeste 0 -- -- 82
2020-03-12 06:00:00 10.7 7 Noroeste 13 Noroeste 0 -- -- 94
2020-03-12 05:00:00 10.7 5 Noroeste 9 Noroeste 0 -- -- 98
2020-03-12 04:00:00 10.7 2 Norte 5 Norte 0 -- -- 98
2020-03-12 03:00:00 10.9 0 Calma 8 Noroeste 0 -- -- 97
2020-03-12 02:00:00 11 4 Norte 12 Oeste 0 -- -- 97
2020-03-12 01:00:00 11.8 6 Oeste 11 Oeste 0 -- -- 98
2020-03-12 00:00:00 12.1 4 Sur 11 Sudoeste 0 -- -- 97
2020-03-11 23:00:00 11.9 2 Sudoeste 5 Sudoeste 0 -- -- 96
2020-03-11 22:00:00 12.1 2 Sudoeste 9 Oeste 0 -- -- 96
2020-03-11 21:00:00 12.4 3 Sudoeste 9 Sur 0 -- -- 95
2020-03-11 20:00:00 12.7 2 Sur 8 Sudoeste 0 -- -- 92
2020-03-11 19:00:00 13.4 6 Sur 17 Sur 0 -- -- 88
2020-03-11 18:00:00 15.4 6 Sur 13 Sudoeste 0 -- -- 80
2020-03-11 17:00:00 16.5 6 Sur 14 Sudoeste 0 -- -- 77
2020-03-11 16:00:00 17.8 8 Sur 15 Sur 0 -- -- 73
2020-03-11 15:00:00 18.2 7 Sur 12 Sur 0 -- -- 72
2020-03-11 14:00:00 17.8 7 Sur 13 Sur 0 -- -- 72
2020-03-11 13:00:00 18.1 8 Sur 13 Sur 0 -- -- 70
2020-03-11 12:00:00 17.9 8 Sur 13 Sur 0 -- -- 68
2020-03-11 11:00:00 17.2 5 Sur 10 Sudoeste 0 -- -- 71
2020-03-11 10:00:00 15.8 5 Sur 9 Sudoeste 0 -- -- 74
2020-03-11 09:00:00 14 5 Este 9 Nordeste 0 -- -- 79
2020-03-11 08:00:00 11.2 5 Norte 9 Norte 0 -- -- 81
2020-03-11 07:00:00 10.6 6 Norte 11 Norte 0 -- -- 80
2020-03-11 06:00:00 11 8 Norte 17 Norte 0 -- -- 81
2020-03-11 05:00:00 10.3 8 Norte 11 Norte 0 -- -- 85
2020-03-11 04:00:00 10.5 6 Noroeste 8 Noroeste 0 -- -- 82
2020-03-11 03:00:00 11.1 5 Noroeste 12 Norte 0 -- -- 76
2020-03-11 02:00:00 11.6 4 Norte 12 Noroeste 0 -- -- 74
2020-03-11 01:00:00 11.3 9 Noroeste 13 Noroeste 0 -- -- 77
2020-03-11 00:00:00 12.6 7 Noroeste 16 Oeste 0 -- -- 69
2020-03-10 23:00:00 12.1 4 Oeste 14 Noroeste 0 -- -- 74
2020-03-10 22:00:00 12.1 4 Oeste 13 Noroeste 0 -- -- 77
2020-03-10 21:00:00 12 5 Oeste 10 Oeste 0 -- -- 79
2020-03-10 20:00:00 12.5 3 Oeste 13 Sudoeste 0 -- -- 79
2020-03-10 19:00:00 13.3 9 Oeste 26 Oeste 0 -- -- 79
2020-03-10 18:00:00 13.8 13 Oeste 33 Sudoeste 0 -- -- 74
2020-03-10 17:00:00 14.2 14 Sudoeste 31 Sur 0 -- -- 72
2020-03-10 16:00:00 15 12 Sur 33 Sudoeste 0 -- -- 62
2020-03-10 15:00:00 15.8 23 Sur 39 Sudoeste 0 -- -- 61
2020-03-10 14:00:00 16.9 21 Sur 32 Sur 0 -- -- 55
2020-03-10 13:00:00 17.2 8 Sur 15 Sur 0 -- -- 56
2020-03-10 12:00:00 17 10 Sur 19 Sur 0 -- -- 54
2020-03-10 11:00:00 15.5 7 Sur 13 Sur 0 -- -- 59
2020-03-10 10:00:00 12.1 5 Sudoeste 17 Noroeste 0 -- -- 71
2020-03-10 09:00:00 10 7 Noroeste 17 Noroeste 0 -- -- 71
2020-03-10 08:00:00 9.4 5 Noroeste 20 Noroeste 0 -- -- 77
2020-03-10 07:00:00 9.4 8 Noroeste 18 Norte 0 -- -- 80
2020-03-10 06:00:00 9.3 14 Noroeste 19 Noroeste 0 -- -- 79
2020-03-10 05:00:00 9.6 9 Noroeste 13 Noroeste 0 -- -- 80
2020-03-10 04:00:00 9.7 12 Noroeste 15 Noroeste 0 -- -- 73
2020-03-10 03:00:00 9.2 3 Norte 10 Norte 0 -- -- 76
2020-03-10 02:00:00 10.2 10 Norte 19 Norte 0 -- -- 68
2020-03-10 01:00:00 10.5 10 Noroeste 13 Noroeste 0 -- -- 70
2020-03-10 00:00:00 10.4 9 Norte 16 Norte 0 -- -- 67
2020-03-09 23:00:00 10.5 9 Norte 15 Norte 0 -- -- 66
2020-03-09 22:00:00 10.8 9 Norte 17 Norte 0 -- -- 70
2020-03-09 21:00:00 12.1 6 Noroeste 13 Noroeste 0 -- -- 68
2020-03-09 20:00:00 12 9 Noroeste 13 Noroeste 0 -- -- 68
2020-03-09 19:00:00 12.6 5 Noroeste 12 Oeste 0 -- -- 69
2020-03-09 18:00:00 14.1 5 Sudoeste 17 Sudoeste 0 -- -- 65
2020-03-09 17:00:00 15 5 Sur 8 Sudoeste 0 -- -- 64
2020-03-09 16:00:00 14.2 3 Sudeste 11 Sur 0 -- -- 66
2020-03-09 15:00:00 13.3 4 Sudeste 17 Sur 0 -- -- 74
2020-03-09 14:00:00 14.2 8 Sur 18 Sur 0 -- -- 76
2020-03-09 13:00:00 13.9 10 Sur 27 Sudoeste 0 -- -- 74
2020-03-09 12:00:00 16.2 9 Sur 18 Sur 0 -- -- 65
2020-03-09 11:00:00 14.6 4 Sudoeste 8 Sudoeste 0 -- -- 74
2020-03-09 10:00:00 13.2 3 Sudoeste 9 Noroeste 0 -- -- 80
2020-03-09 09:00:00 11.8 9 Noroeste 11 Norte 0 -- -- 84
2020-03-09 08:00:00 11.5 7 Norte 17 Norte 0 -- -- 88
2020-03-09 07:00:00 12.1 5 Nordeste 15 Norte 0 -- -- 89
2020-03-09 06:00:00 11.7 10 Norte 13 Norte 0 -- -- 89
2020-03-09 05:00:00 11.8 6 Este 13 Este 0 -- -- 89
2020-03-09 04:00:00 10.6 11 Norte 14 Norte 0 -- -- 83
2020-03-09 03:00:00 10.3 2 Nordeste 8 Noroeste 0 -- -- 86
2020-03-09 02:00:00 10.7 3 Noroeste 12 Nordeste 0 -- -- 86
2020-03-09 01:00:00 10.5 7 Norte 14 Nordeste 0 -- -- 83
2020-03-09 00:00:00 11 3 Norte 14 Noroeste 0 -- -- 81
2020-03-08 23:00:00 11.8 8 Noroeste 17 Noroeste 0 -- -- 78
2020-03-08 22:00:00 12 4 Noroeste 6 Norte 0 -- -- 85
2020-03-08 21:00:00 12.4 4 Sudoeste 16 Oeste 0 -- -- 82
2020-03-08 20:00:00 12.8 6 Oeste 17 Sur 0 -- -- 80
2020-03-08 19:00:00 12.9 9 Sudoeste 23 Sudoeste 0 -- -- 75
2020-03-08 18:00:00 13.6 8 Sur 22 Sudoeste 0 -- -- 71
2020-03-08 17:00:00 15.2 10 Sur 18 Sudoeste 0 -- -- 72
2020-03-08 16:00:00 16.7 9 Sur 15 Sur 0 -- -- 68
2020-03-08 15:00:00 17.7 9 Sur 17 Sur 0 -- -- 64
2020-03-08 14:00:00 17.3 8 Sur 13 Sudeste 0 -- -- 66
2020-03-08 13:00:00 17.5 8 Sudeste 14 Sudeste 0 -- -- 63
2020-03-08 12:00:00 17.6 9 Sur 13 Sur 0 -- -- 63
2020-03-08 11:00:00 16.3 8 Sur 15 Sudoeste 0 -- -- 64
2020-03-08 10:00:00 13.3 8 Oeste 19 Noroeste 0 -- -- 69
2020-03-08 09:00:00 10.6 10 Noroeste 22 Noroeste 0 -- -- 70
2020-03-08 08:00:00 10 13 Noroeste 18 Noroeste 0 -- -- 73
2020-03-08 07:00:00 10 10 Noroeste 18 Oeste 0 -- -- 76
2020-03-08 06:00:00 10.7 9 Noroeste 19 Oeste 0 -- -- 73
2020-03-08 05:00:00 10.8 9 Noroeste 21 Noroeste 0 -- -- 72
2020-03-08 04:00:00 10.7 9 Noroeste 21 Oeste 0 -- -- 73
2020-03-08 03:00:00 9.6 14 Noroeste 20 Noroeste 0 -- -- 75
2020-03-08 02:00:00 9.7 14 Noroeste 22 Noroeste 0 -- -- 76
2020-03-08 01:00:00 9.9 13 Noroeste 19 Noroeste 0 -- -- 72
2020-03-08 00:00:00 10.3 11 Noroeste 20 Noroeste 0 -- -- 72
2020-03-07 23:00:00 10.8 9 Noroeste 18 Oeste 0 -- -- 71
2020-03-07 22:00:00 10.7 7 Oeste 13 Oeste 0 -- -- 76
2020-03-07 21:00:00 10.4 4 Sudoeste 10 Sudoeste 0 -- -- 74
2020-03-07 20:00:00 10.8 3 Sur 8 Sur 0 -- -- 72
2020-03-07 19:00:00 11.8 4 Sur 11 Sudeste 0 -- -- 68
2020-03-07 18:00:00 13.6 5 Sur 14 Sur 0 -- -- 59
2020-03-07 17:00:00 15.3 6 Sur 14 Sur 0 -- -- 52
2020-03-07 16:00:00 16.3 9 Sur 17 Sur 0 -- -- 52
2020-03-07 15:00:00 16.5 9 Sur 18 Sudoeste 0 -- -- 47
2020-03-07 14:00:00 16.5 9 Sur 24 Sudoeste 0 -- -- 45
2020-03-07 13:00:00 16.3 10 Sur 22 Sudoeste 0 -- -- 51
2020-03-07 12:00:00 15.8 12 Sur 22 Sur 0 -- -- 49
2020-03-07 11:00:00 14.1 5 Sur 9 Sur 0 -- -- 56
2020-03-07 10:00:00 12.7 4 Sur 10 Sur 0 -- -- 60
2020-03-07 09:00:00 10.4 4 Este 12 Norte 0 -- -- 63
2020-03-07 08:00:00 7.9 4 Este 22 Norte 0 -- -- 65
2020-03-07 07:00:00 6.8 14 Noroeste 23 Noroeste 0 -- -- 57
2020-03-07 06:00:00 6.9 13 Noroeste 19 Noroeste 0 -- -- 61
2020-03-07 05:00:00 7.7 6 Norte 17 Nordeste 0 -- -- 58
2020-03-07 04:00:00 8.8 10 Norte 23 Norte 0 -- -- 55
2020-03-07 03:00:00 8.1 12 Norte 27 Norte 0 -- -- 64
2020-03-07 02:00:00 8.2 16 Norte 26 Norte 0 -- -- 70
2020-03-07 01:00:00 8.6 9 Noroeste 17 Noroeste 0 -- -- 78
2020-03-07 00:00:00 8.8 9 Noroeste 14 Norte 0 -- -- 82
2020-03-06 23:00:00 8.9 5 Norte 14 Noroeste 0 -- -- 77
2020-03-06 22:00:00 9.9 12 Noroeste 16 Norte 0 -- -- 73
2020-03-06 21:00:00 10.2 13 Noroeste 17 Noroeste 0 -- -- 73
2020-03-06 20:00:00 10.5 9 Noroeste 13 Noroeste 0 -- -- 70
2020-03-06 19:00:00 10.8 4 Noroeste 12 Nordeste 0 -- -- 67
2020-03-06 18:00:00 12 8 Este 36 Este 0 -- -- 64
2020-03-06 17:00:00 12 17 Este 34 Este 0.2 -- -- 75
2020-03-06 16:00:00 12.1 23 Este 45 Este 0 -- -- 68
2020-03-06 15:00:00 14.5 19 Este 30 Este 0 -- -- 62
2020-03-06 14:00:00 16.3 5 Este 13 Sudeste 0 -- -- 53
2020-03-06 13:00:00 16.9 6 Sur 12 Sur 0 -- -- 58
2020-03-06 12:00:00 16.6 6 Sur 22 Sur 0 -- -- 51
2020-03-06 11:00:00 15.5 8 Sur 15 Sur 0 -- -- 59
2020-03-06 10:00:00 13.5 5 Norte 21 Noroeste 0 -- -- 65
2020-03-06 09:00:00 10.4 16 Noroeste 23 Noroeste 0 -- -- 64
2020-03-06 08:00:00 10.1 13 Noroeste 30 Noroeste 0 -- -- 73
2020-03-06 07:00:00 9.4 5 Noroeste 20 Noroeste 0 -- -- 80
2020-03-06 06:00:00 10.9 5 Norte 19 Noroeste 0 -- -- 78
2020-03-06 05:00:00 11 7 Norte 13 Norte 0 -- -- 80
2020-03-06 04:00:00 11.3 8 Nordeste 18 Nordeste 0 -- -- 78
2020-03-06 03:00:00 11.7 6 Nordeste 16 Este 0 -- -- 87
2020-03-06 02:00:00 11 7 Nordeste 14 Nordeste 0 -- -- 90
2020-03-06 01:00:00 10.7 8 Norte 10 Norte 0 -- -- 92
2020-03-06 00:00:00 10.9 2 Noroeste 8 Noroeste 0 -- -- 90
2020-03-05 23:00:00 11.7 3 Norte 8 Este 0 -- -- 87
2020-03-05 22:00:00 12.4 4 Este 17 Este 0 -- -- 87
2020-03-05 21:00:00 12.7 10 Este 26 Este 0 -- -- 88
2020-03-05 20:00:00 12.7 14 Este 41 Este 0 -- -- 88
2020-03-05 19:00:00 12.8 19 Nordeste 50 Este 0 -- -- 83
2020-03-05 18:00:00 14.4 27 Este 50 Este 0 -- -- 77
2020-03-05 17:00:00 18.7 8 Oeste 35 Oeste 0 -- -- 62
2020-03-05 16:00:00 19.4 9 Sudoeste 44 Oeste 0 -- -- 59
2020-03-05 15:00:00 21 17 Sudoeste 53 Sudoeste 0 -- -- 47
2020-03-05 14:00:00 18.8 19 Sudoeste 48 Sudoeste 0 -- -- 63
2020-03-05 13:00:00 16.7 21 Sudoeste 58 Sudoeste 0 -- -- 74
2020-03-05 12:00:00 16.8 24 Sudoeste 62 Sudoeste 0 -- -- 74
2020-03-05 11:00:00 16.4 14 Sudoeste 44 Sudoeste 0 -- -- 70
2020-03-05 10:00:00 14.8 14 Sudoeste 31 Sudoeste 0 -- -- 81
2020-03-05 09:00:00 13.3 13 Sudoeste 32 Sudoeste 0 -- -- 87
2020-03-05 08:00:00 11.1 13 Oeste 25 Oeste 0 -- -- 93
2020-03-05 07:00:00 10.6 0 Calma 6 Este 0 -- -- 95
2020-03-05 06:00:00 10.5 3 Sudoeste 6 Oeste 0 -- -- 94
2020-03-05 05:00:00 10.6 0 Calma 5 Noroeste 0 -- -- 93
2020-03-05 04:00:00 10.8 4 Oeste 6 Sudoeste 0 -- -- 93
2020-03-05 03:00:00 10.6 0 Calma 4 Norte 0 -- -- 93
2020-03-05 02:00:00 10.5 3 Oeste 6 Noroeste 0 -- -- 92
2020-03-05 01:00:00 10.6 3 Oeste 9 Noroeste 0 -- -- 90
2020-03-05 00:00:00 10.9 0 Calma 12 Noroeste 0 -- -- 88
2020-03-04 23:00:00 11.4 7 Norte 12 Norte 0 -- -- 87
2020-03-04 22:00:00 11.6 4 Noroeste 8 Norte 0 -- -- 86
2020-03-04 21:00:00 11.9 6 Noroeste 8 Norte 0 -- -- 86
2020-03-04 20:00:00 12.5 5 Norte 9 Nordeste 0 -- -- 85
2020-03-04 19:00:00 13.1 4 Este 8 Este 0 -- -- 82
2020-03-04 18:00:00 14.4 3 Sudeste 12 Sur 0 -- -- 75
2020-03-04 17:00:00 16 8 Sur 15 Sur 0 -- -- 68
2020-03-04 16:00:00 15.2 8 Sur 15 Sur 0 -- -- 71
2020-03-04 15:00:00 15.1 8 Sur 14 Sur 0 -- -- 67
2020-03-04 14:00:00 15.4 9 Sur 17 Sur 0 -- -- 68
2020-03-04 13:00:00 13.7 6 Sudeste 13 Sudeste 0 -- -- 70
2020-03-04 12:00:00 13.7 7 Sur 15 Este 0 -- -- 71
2020-03-04 11:00:00 13 6 Sudeste 12 Sudeste 0 -- -- 74
2020-03-04 10:00:00 11.7 4 Sur 13 Oeste 0 -- -- 75
2020-03-04 09:00:00 10 8 Oeste 12 Oeste 0 -- -- 78
2020-03-04 08:00:00 8.4 4 Oeste 15 Noroeste 0 -- -- 81
2020-03-04 07:00:00 8.2 8 Noroeste 11 Noroeste 0 -- -- 78
2020-03-04 06:00:00 7.8 5 Noroeste 10 Noroeste 0 -- -- 78
2020-03-04 05:00:00 8 2 Sudoeste 8 Noroeste 0 -- -- 75
2020-03-04 04:00:00 7.8 3 Norte 8 Noroeste 0 -- -- 77
2020-03-04 03:00:00 8.6 4 Norte 20 Noroeste 0 -- -- 72
2020-03-04 02:00:00 8.4 12 Oeste 24 Oeste 0 -- -- 73
2020-03-04 01:00:00 8.6 7 Noroeste 30 Noroeste 0 -- -- 74
2020-03-04 00:00:00 8.9 11 Oeste 22 Sudoeste 0 -- -- 78